createdAt,value
2023-04-30T00:00:13.914Z,10.50
2023-04-30T00:03:05.724Z,10.50
2023-04-30T00:05:38.495Z,10.49
2023-04-30T00:08:19.738Z,10.49
2023-04-30T00:10:57.851Z,10.50
2023-04-30T00:13:27.349Z,10.53
2023-04-30T00:15:56.934Z,10.52
2023-04-30T00:18:34.235Z,10.54
2023-04-30T00:21:05.740Z,10.54
2023-04-30T00:23:37.885Z,10.55
2023-04-30T00:26:17.759Z,10.52
2023-04-30T00:28:54.368Z,10.46
2023-04-30T00:31:25.442Z,10.42
2023-04-30T00:33:57.659Z,10.40
2023-04-30T00:36:42.010Z,10.36
2023-04-30T00:39:13.966Z,10.29
2023-04-30T00:41:43.376Z,10.26
2023-04-30T00:44:12.473Z,10.23
2023-04-30T00:46:41.481Z,10.21
2023-04-30T00:49:10.573Z,10.19
2023-04-30T00:51:42.298Z,10.19
2023-04-30T00:54:20.932Z,10.18
2023-04-30T00:57:17.927Z,10.06
2023-04-30T00:59:47.160Z,10.05
2023-04-30T01:02:21.526Z,10.04
2023-04-30T01:05:00.317Z,10.05
2023-04-30T01:07:44.565Z,10.07
2023-04-30T01:10:23.889Z,10.10
2023-04-30T01:13:05.002Z,10.15
2023-04-30T01:16:34.814Z,10.18
2023-04-30T01:19:50.984Z,10.15
2023-04-30T01:22:32.382Z,10.10
2023-04-30T01:25:46.267Z,10.07
2023-04-30T01:28:24.531Z,10.01
2023-04-30T01:31:06.129Z,9.96
2023-04-30T01:33:35.315Z,9.95
2023-04-30T01:36:17.561Z,9.94
2023-04-30T01:39:10.920Z,9.90
2023-04-30T01:42:26.906Z,9.84
2023-04-30T01:45:52.251Z,9.74
2023-04-30T01:48:44.619Z,9.64
2023-04-30T01:51:40.040Z,9.55
2023-04-30T01:54:58.480Z,9.48
2023-04-30T01:57:46.013Z,9.40
2023-04-30T02:00:18.065Z,9.37
2023-04-30T02:02:51.507Z,9.33
2023-04-30T02:05:40.289Z,9.28
2023-04-30T02:08:16.126Z,9.22
2023-04-30T02:10:48.343Z,9.16
2023-04-30T02:13:22.463Z,9.09
2023-04-30T02:15:53.581Z,9.04
2023-04-30T02:18:22.562Z,8.98
2023-04-30T02:20:51.455Z,8.92
2023-04-30T02:23:25.713Z,8.88
2023-04-30T02:25:55.222Z,8.84
2023-04-30T02:28:24.285Z,8.80
2023-04-30T02:30:55.165Z,8.77
2023-04-30T02:33:26.676Z,8.72
2023-04-30T02:35:55.724Z,8.66
2023-04-30T02:38:26.931Z,8.61
2023-04-30T02:40:55.755Z,8.56
2023-04-30T02:43:26.857Z,8.53
2023-04-30T02:46:00.290Z,8.51
2023-04-30T02:48:31.632Z,8.48
2023-04-30T02:51:00.586Z,8.45
2023-04-30T02:53:35.018Z,8.41
2023-04-30T02:56:07.696Z,8.35
2023-04-30T02:58:41.164Z,8.32
2023-04-30T03:01:17.588Z,8.28
2023-04-30T03:03:55.880Z,8.23
2023-04-30T03:06:36.029Z,8.19
2023-04-30T03:09:06.708Z,8.14
2023-04-30T03:11:45.988Z,8.11
2023-04-30T03:14:48.349Z,8.07
2023-04-30T03:17:21.546Z,8.02
2023-04-30T03:20:03.464Z,8.01
2023-04-30T03:22:38.254Z,7.97
2023-04-30T03:25:13.803Z,7.95
2023-04-30T03:27:49.911Z,7.92
2023-04-30T03:30:22.532Z,7.89
2023-04-30T03:33:12.952Z,7.86
2023-04-30T03:35:57.825Z,7.83
2023-04-30T03:38:32.359Z,7.82
2023-04-30T03:41:07.168Z,7.79
2023-04-30T03:43:45.598Z,7.80
2023-04-30T03:46:21.761Z,7.81
2023-04-30T03:49:01.464Z,7.83
2023-04-30T03:51:41.787Z,7.81
2023-04-30T03:54:12.035Z,7.77
2023-04-30T03:56:52.647Z,7.88
2023-04-30T03:59:24.278Z,7.98
2023-04-30T04:01:58.242Z,8.11
2023-04-30T04:04:31.385Z,8.21
2023-04-30T04:07:15.486Z,8.32
2023-04-30T04:09:58.525Z,8.47
2023-04-30T04:12:33.563Z,8.57
2023-04-30T04:15:25.912Z,8.69
2023-04-30T04:18:01.730Z,8.85
2023-04-30T04:20:42.242Z,8.99
2023-04-30T04:23:32.454Z,9.09
2023-04-30T04:26:37.042Z,9.17
2023-04-30T04:29:19.345Z,9.27
2023-04-30T04:31:55.423Z,9.42
2023-04-30T04:34:43.832Z,9.58
2023-04-30T04:37:22.817Z,9.72
2023-04-30T04:40:10.323Z,9.88
2023-04-30T04:42:55.380Z,10.03
2023-04-30T04:45:31.500Z,10.18
2023-04-30T04:48:01.664Z,10.31
2023-04-30T04:50:34.313Z,10.43
2023-04-30T04:53:34.163Z,10.56
2023-04-30T04:56:07.130Z,10.69
2023-04-30T04:58:42.038Z,10.74
2023-04-30T05:01:30.437Z,10.81
2023-04-30T05:04:23.367Z,10.88
2023-04-30T05:07:07.743Z,10.87
2023-04-30T05:09:37.067Z,10.89
2023-04-30T05:12:06.384Z,10.83
2023-04-30T05:14:41.139Z,10.87
2023-04-30T05:17:19.530Z,11.05
2023-04-30T05:19:50.538Z,11.24
2023-04-30T05:22:23.733Z,11.43
2023-04-30T05:24:56.490Z,11.55
2023-04-30T05:27:32.784Z,11.69
2023-04-30T05:30:04.906Z,11.86
2023-04-30T05:32:34.947Z,12.06
2023-04-30T05:35:08.233Z,12.17
2023-04-30T05:37:40.834Z,12.34
2023-04-30T05:40:30.392Z,12.49
2023-04-30T05:43:02.269Z,12.67
2023-04-30T05:45:52.217Z,12.83
2023-04-30T05:48:23.165Z,12.95
2023-04-30T05:50:55.852Z,13.17
2023-04-30T05:53:31.550Z,13.33
2023-04-30T05:56:06.936Z,13.52
2023-04-30T05:58:41.655Z,13.89
2023-04-30T06:01:14.943Z,14.32
2023-04-30T06:03:59.891Z,14.69
2023-04-30T06:06:32.820Z,14.90
2023-04-30T06:09:05.285Z,15.04
2023-04-30T06:11:34.505Z,15.31
2023-04-30T06:14:07.957Z,15.65
2023-04-30T06:16:41.768Z,15.96
2023-04-30T06:19:10.790Z,16.15
2023-04-30T06:21:47.281Z,16.22
2023-04-30T06:24:16.650Z,16.48
2023-04-30T06:26:47.957Z,16.60
2023-04-30T06:29:18.156Z,16.64
2023-04-30T06:31:47.219Z,16.73
2023-04-30T06:34:18.983Z,16.94
2023-04-30T06:36:56.461Z,17.15
2023-04-30T06:39:26.640Z,17.38
2023-04-30T06:41:58.342Z,17.52
2023-04-30T06:44:32.956Z,17.68
2023-04-30T06:47:10.513Z,17.88
2023-04-30T06:49:46.123Z,18.07
2023-04-30T06:52:17.624Z,18.31
2023-04-30T06:54:49.682Z,18.63
2023-04-30T06:57:19.394Z,18.90
2023-04-30T06:59:58.275Z,19.03
2023-04-30T07:02:45.396Z,19.14
2023-04-30T07:05:28.828Z,19.17
2023-04-30T07:08:06.620Z,19.35
2023-04-30T07:10:59.585Z,19.60
2023-04-30T07:13:33.998Z,19.87
2023-04-30T07:16:03.730Z,20.13
2023-04-30T07:18:41.345Z,20.14
2023-04-30T07:21:17.720Z,20.13
2023-04-30T07:23:59.039Z,20.33
2023-04-30T07:26:39.069Z,20.46
2023-04-30T07:29:31.729Z,20.67
2023-04-30T07:32:09.206Z,20.58
2023-04-30T07:34:46.081Z,20.51
2023-04-30T07:37:16.176Z,20.54
2023-04-30T07:39:59.587Z,20.67
2023-04-30T07:42:48.687Z,20.84
2023-04-30T07:45:34.678Z,20.99
2023-04-30T07:48:07.059Z,21.21
2023-04-30T07:50:40.728Z,21.26
2023-04-30T07:53:12.349Z,20.94
2023-04-30T07:55:41.122Z,20.74
2023-04-30T07:58:09.886Z,20.82
2023-04-30T08:00:38.619Z,21.00
2023-04-30T08:03:08.138Z,21.26
2023-04-30T08:05:36.847Z,21.32
2023-04-30T08:08:13.238Z,21.30
2023-04-30T08:10:42.251Z,21.32
2023-04-30T08:13:11.203Z,21.44
2023-04-30T08:15:40.187Z,21.54
2023-04-30T08:18:11.453Z,21.68
2023-04-30T08:20:40.979Z,21.82
2023-04-30T08:23:20.266Z,21.86
2023-04-30T08:25:57.198Z,21.83
2023-04-30T08:28:46.991Z,21.77
2023-04-30T08:31:45.023Z,21.76
2023-04-30T08:34:25.596Z,21.49
2023-04-30T08:37:00.503Z,21.43
2023-04-30T08:43:45.854Z,21.28
2023-04-30T08:47:05.616Z,21.56
2023-04-30T08:50:09.547Z,21.65
2023-04-30T08:52:40.176Z,21.37
2023-04-30T08:55:17.038Z,21.06
2023-04-30T08:58:02.123Z,20.95
2023-04-30T09:00:41.100Z,20.57
2023-04-30T09:03:23.382Z,20.38
2023-04-30T09:06:00.966Z,20.34
2023-04-30T09:08:58.445Z,20.21
2023-04-30T09:11:37.578Z,20.38
2023-04-30T09:14:27.474Z,20.65
2023-04-30T09:17:35.901Z,20.74
2023-04-30T09:20:30.124Z,20.42
2023-04-30T09:23:23.157Z,20.08
2023-04-30T09:26:06.540Z,20.02
2023-04-30T09:28:41.690Z,20.11
2023-04-30T09:31:29.657Z,20.09
2023-04-30T09:34:04.280Z,20.27
2023-04-30T09:37:12.456Z,20.53
2023-04-30T09:39:57.765Z,20.72
2023-04-30T09:42:27.239Z,20.77
2023-04-30T09:45:13.338Z,20.85
2023-04-30T09:47:42.809Z,20.88
2023-04-30T09:50:13.954Z,20.89
2023-04-30T09:52:54.165Z,21.14
2023-04-30T09:55:23.618Z,21.39
2023-04-30T10:01:16.428Z,21.69
2023-04-30T10:03:52.626Z,21.73
2023-04-30T10:06:35.168Z,21.87
2023-04-30T10:09:30.512Z,22.02
2023-04-30T10:12:20.158Z,22.09
2023-04-30T10:15:32.332Z,22.32
2023-04-30T10:18:26.559Z,22.49
2023-04-30T10:21:31.216Z,22.57
2023-04-30T10:24:42.033Z,22.79
2023-04-30T10:27:19.972Z,22.88
2023-04-30T10:30:09.405Z,22.73
2023-04-30T10:33:52.604Z,22.52
2023-04-30T10:37:02.271Z,21.84
2023-04-30T10:39:49.366Z,21.17
2023-04-30T10:42:24.106Z,20.56
2023-04-30T10:45:10.414Z,20.08
2023-04-30T10:47:58.013Z,19.59
2023-04-30T10:50:32.337Z,19.13
2023-04-30T10:53:07.464Z,18.78
2023-04-30T10:56:11.579Z,18.34
2023-04-30T10:58:46.093Z,17.85
2023-04-30T11:01:25.977Z,17.54
2023-04-30T11:04:27.369Z,17.25
2023-04-30T11:07:15.117Z,17.06
2023-04-30T11:10:08.613Z,16.98
2023-04-30T11:12:48.398Z,16.75
2023-04-30T11:15:44.478Z,16.44
2023-04-30T11:18:21.640Z,16.09
2023-04-30T11:21:13.019Z,15.79
2023-04-30T11:24:17.351Z,15.63
2023-04-30T11:27:08.136Z,15.62
2023-04-30T11:29:46.584Z,15.60
2023-04-30T11:32:22.750Z,15.51
2023-04-30T11:34:54.416Z,15.45
2023-04-30T11:37:42.773Z,15.48
2023-04-30T11:40:31.340Z,15.47
2023-04-30T11:43:29.056Z,15.46
2023-04-30T11:46:20.599Z,15.56
2023-04-30T11:48:49.583Z,15.63
2023-04-30T11:51:24.723Z,15.61
2023-04-30T11:53:58.200Z,15.56
2023-04-30T11:56:27.549Z,15.49
2023-04-30T12:00:35.985Z,15.53
2023-04-30T12:03:47.193Z,15.47
2023-04-30T12:06:52.825Z,15.45
2023-04-30T12:09:55.737Z,15.42
2023-04-30T12:12:54.872Z,15.42
2023-04-30T12:15:39.367Z,15.46
2023-04-30T12:18:17.100Z,15.48
2023-04-30T12:20:45.825Z,15.52
2023-04-30T12:23:17.507Z,15.59
2023-04-30T12:25:59.114Z,15.68
2023-04-30T12:28:40.751Z,15.67
2023-04-30T12:31:19.243Z,15.61
2023-04-30T12:34:12.806Z,15.61
2023-04-30T12:36:59.723Z,15.51
2023-04-30T12:40:10.747Z,15.42
2023-04-30T12:42:43.740Z,15.45
2023-04-30T12:45:50.769Z,15.50
2023-04-30T12:48:23.035Z,15.42
2023-04-30T12:51:05.329Z,15.37
2023-04-30T12:53:34.633Z,15.39
2023-04-30T12:56:31.621Z,15.42
2023-04-30T12:59:14.055Z,15.42
2023-04-30T13:01:46.171Z,15.43
2023-04-30T13:04:23.451Z,15.49
2023-04-30T13:06:57.283Z,15.56
2023-04-30T13:09:38.784Z,15.53
2023-04-30T13:12:22.751Z,15.44
2023-04-30T13:15:02.971Z,15.37
2023-04-30T13:18:12.737Z,15.32
2023-04-30T13:20:43.730Z,15.22
2023-04-30T13:23:18.210Z,15.25
2023-04-30T13:25:53.723Z,15.27
2023-04-30T13:28:25.531Z,15.24
2023-04-30T13:30:58.213Z,15.20
2023-04-30T13:33:34.306Z,15.18
2023-04-30T13:36:07.482Z,15.17
2023-04-30T13:38:41.840Z,15.16
2023-04-30T13:41:23.842Z,15.20
2023-04-30T13:43:56.183Z,15.22
2023-04-30T13:46:32.989Z,15.24
2023-04-30T13:49:11.458Z,15.20
2023-04-30T13:51:40.141Z,15.21
2023-04-30T13:54:11.687Z,15.20
2023-04-30T13:57:22.721Z,15.22
2023-04-30T14:00:15.579Z,15.21
2023-04-30T14:02:53.069Z,15.23
2023-04-30T14:05:47.199Z,15.21
2023-04-30T14:08:25.663Z,15.16
2023-04-30T14:11:21.999Z,15.14
2023-04-30T14:14:27.950Z,15.18
2023-04-30T14:17:06.329Z,15.10
2023-04-30T14:20:09.886Z,15.10
2023-04-30T14:22:48.631Z,15.05
2023-04-30T14:25:29.493Z,15.09
2023-04-30T14:28:20.607Z,15.10
2023-04-30T14:31:29.631Z,15.10
2023-04-30T14:34:28.991Z,15.09
2023-04-30T14:37:05.838Z,15.05
2023-04-30T14:39:57.719Z,15.04
2023-04-30T14:43:13.569Z,15.00
2023-04-30T14:46:02.693Z,14.92
2023-04-30T14:48:46.871Z,14.92
2023-04-30T14:51:22.942Z,14.95
2023-04-30T14:53:59.832Z,14.96
2023-04-30T15:00:09.461Z,14.85
2023-04-30T15:02:54.782Z,14.87
2023-04-30T15:05:36.213Z,14.87
2023-04-30T15:08:33.813Z,14.85
2023-04-30T15:11:24.004Z,14.86
2023-04-30T15:13:56.790Z,14.86
2023-04-30T15:16:31.477Z,14.82
2023-04-30T15:19:10.804Z,14.70
2023-04-30T15:21:48.842Z,14.71
2023-04-30T15:24:23.782Z,14.75
2023-04-30T15:27:06.225Z,14.75
2023-04-30T15:29:45.310Z,14.77
2023-04-30T15:32:21.152Z,14.78
2023-04-30T15:34:56.585Z,14.81
2023-04-30T15:37:28.020Z,14.78
2023-04-30T15:40:22.201Z,14.83
2023-04-30T15:43:05.697Z,14.83
2023-04-30T15:45:38.582Z,14.85
2023-04-30T15:48:13.807Z,14.90
2023-04-30T15:50:53.297Z,14.95
2023-04-30T15:53:26.619Z,14.97
2023-04-30T15:55:58.734Z,14.99
2023-04-30T15:58:31.519Z,14.98
2023-04-30T16:01:01.755Z,14.93
2023-04-30T16:03:31.236Z,14.93
2023-04-30T16:06:03.616Z,14.90
2023-04-30T16:08:33.971Z,14.90
2023-04-30T16:11:06.402Z,14.87
2023-04-30T16:13:49.911Z,14.86
2023-04-30T16:16:27.350Z,14.84
2023-04-30T16:19:13.306Z,14.79
2023-04-30T16:21:50.426Z,14.83
2023-04-30T16:24:28.832Z,14.79
2023-04-30T16:26:58.386Z,14.80
2023-04-30T16:29:42.229Z,14.79
2023-04-30T16:32:14.050Z,14.74
2023-04-30T16:34:50.065Z,14.66
2023-04-30T16:37:32.709Z,14.61
2023-04-30T16:40:18.592Z,14.51
2023-04-30T16:43:41.568Z,14.51
2023-04-30T16:47:03.494Z,14.45
2023-04-30T16:50:33.280Z,14.35
2023-04-30T16:53:17.327Z,14.31
2023-04-30T16:56:07.131Z,14.30
2023-04-30T17:02:00.577Z,14.23
2023-04-30T17:04:44.277Z,14.19
2023-04-30T17:08:13.259Z,14.13
2023-04-30T17:10:43.088Z,14.07
2023-04-30T17:13:18.499Z,14.02
2023-04-30T17:16:03.432Z,13.97
2023-04-30T17:18:40.471Z,13.93
2023-04-30T17:21:11.680Z,13.90
2023-04-30T17:24:01.993Z,13.86
2023-04-30T17:26:31.775Z,13.84
2023-04-30T17:29:16.475Z,13.81
2023-04-30T17:31:49.962Z,13.77
2023-04-30T17:34:24.658Z,13.73
2023-04-30T17:37:01.052Z,13.66
2023-04-30T17:39:39.966Z,13.62
2023-04-30T17:42:08.421Z,13.60
2023-04-30T17:45:08.132Z,13.56
2023-04-30T17:48:40.064Z,13.48
2023-04-30T17:51:34.467Z,13.40
2023-04-30T17:54:30.475Z,13.34
2023-04-30T18:01:27.581Z,13.14
2023-04-30T18:41:38.583Z,13.17
2023-04-30T18:47:46.470Z,12.43
2023-04-30T18:52:09.688Z,12.17
2023-04-30T18:58:59.553Z,11.70
2023-04-30T19:01:57.700Z,11.55
2023-04-30T19:07:44.472Z,11.30
2023-04-30T19:11:06.900Z,11.21
2023-04-30T19:14:06.237Z,11.04
2023-04-30T19:17:10.582Z,10.84
2023-04-30T19:20:05.410Z,10.74
2023-04-30T19:23:01.059Z,10.67
2023-04-30T19:26:08.128Z,10.59
2023-04-30T19:28:37.187Z,10.49
2023-04-30T19:31:12.327Z,10.41
2023-04-30T19:33:56.655Z,10.34
2023-04-30T19:36:43.815Z,10.23
2023-04-30T19:40:03.650Z,10.14
2023-04-30T19:42:57.487Z,9.98
2023-04-30T19:45:55.666Z,9.90
2023-04-30T19:48:30.994Z,9.81
2023-04-30T19:51:10.949Z,9.72
2023-04-30T19:53:51.921Z,9.66
2023-04-30T19:57:26.322Z,9.58
2023-04-30T20:01:05.970Z,9.39
2023-04-30T20:03:49.670Z,9.32
2023-04-30T20:06:20.725Z,9.26
2023-04-30T20:08:55.861Z,9.20
2023-04-30T20:11:35.919Z,9.15
2023-04-30T20:14:12.761Z,9.10
2023-04-30T20:16:46.347Z,8.99
2023-04-30T20:19:45.922Z,8.98
2023-04-30T20:22:19.268Z,8.87
2023-04-30T20:25:09.746Z,8.79
2023-04-30T20:27:42.614Z,8.73
2023-04-30T20:30:20.345Z,8.69
2023-04-30T20:33:01.882Z,8.67
2023-04-30T20:36:11.671Z,8.63
2023-04-30T20:39:10.274Z,8.59
2023-04-30T20:42:21.889Z,8.53
2023-04-30T20:45:10.738Z,8.50
2023-04-30T20:47:51.454Z,8.47
2023-04-30T20:50:38.740Z,8.45
2023-04-30T20:53:17.051Z,8.41
2023-04-30T20:56:44.746Z,8.39
2023-04-30T20:59:34.008Z,8.32
2023-04-30T21:02:27.775Z,8.28
2023-04-30T21:05:17.234Z,8.23
2023-04-30T21:08:02.655Z,8.18
2023-04-30T21:10:44.398Z,8.14
2023-04-30T21:13:34.300Z,8.09
2023-04-30T21:16:19.001Z,8.03
2023-04-30T21:19:36.695Z,7.94
2023-04-30T21:26:41.132Z,7.76
2023-04-30T21:29:36.405Z,7.73
2023-04-30T21:33:00.770Z,7.70
2023-04-30T21:35:45.504Z,7.69
2023-04-30T21:38:35.182Z,7.66
2023-04-30T21:42:02.057Z,7.58
2023-04-30T21:44:59.162Z,7.47
2023-04-30T21:48:08.092Z,7.38
2023-04-30T21:51:24.728Z,7.28
2023-04-30T21:54:19.400Z,7.21
2023-04-30T21:57:06.236Z,7.17
2023-04-30T21:59:44.015Z,7.26
2023-04-30T22:02:47.663Z,7.28
2023-04-30T22:12:32.190Z,7.20
2023-04-30T22:15:23.194Z,7.14
2023-04-30T22:18:48.052Z,7.12
2023-04-30T22:21:27.417Z,7.04
2023-04-30T22:24:55.573Z,7.00
2023-04-30T22:28:32.320Z,6.91
2023-04-30T22:31:56.890Z,6.85
2023-04-30T22:35:14.079Z,6.80
2023-04-30T22:38:03.340Z,6.79
2023-04-30T22:41:04.392Z,6.75
2023-04-30T22:43:36.726Z,6.72
2023-04-30T22:50:18.113Z,6.59
2023-04-30T22:53:39.008Z,6.51
2023-04-30T22:57:11.446Z,6.44
2023-04-30T23:00:27.089Z,6.38
2023-04-30T23:04:19.998Z,6.37
2023-04-30T23:08:09.512Z,6.36
2023-04-30T23:14:36.396Z,6.31
2023-04-30T23:17:58.673Z,6.28
2023-04-30T23:31:40.414Z,7.51
2023-04-30T23:34:39.177Z,7.70
2023-04-30T23:37:51.557Z,7.22
2023-04-30T23:41:01.034Z,6.86
2023-04-30T23:43:46.191Z,6.65
2023-04-30T23:46:29.059Z,6.50
2023-04-30T23:49:00.154Z,6.40
2023-04-30T23:51:42.911Z,6.31
2023-04-30T23:54:25.001Z,6.18
2023-04-30T23:56:58.983Z,6.07
2023-04-30T23:59:39.746Z,5.98
